sensor_id;sensor_type;location;lat;lon;timestamp;P1;durP1;ratioP1;P2;durP2;ratioP2
11524;SDS011;5819;49.648;8.330;2023-02-28T01:23:57;5.20;;;3.10;;
11524;SDS011;5819;49.648;8.330;2023-02-28T01:26:25;3.63;;;2.63;;
11524;SDS011;5819;49.648;8.330;2023-02-28T01:28:53;4.13;;;2.80;;
11524;SDS011;5819;49.648;8.330;2023-02-28T01:31:21;3.23;;;2.80;;
11524;SDS011;5819;49.648;8.330;2023-02-28T01:33:49;3.90;;;2.93;;
11524;SDS011;5819;49.648;8.330;2023-02-28T01:36:18;4.43;;;3.10;;
11524;SDS011;5819;49.648;8.330;2023-02-28T01:38:47;3.20;;;2.90;;
11524;SDS011;5819;49.648;8.330;2023-02-28T01:41:18;3.67;;;2.43;;
11524;SDS011;5819;49.648;8.330;2023-02-28T01:43:54;3.73;;;2.90;;
11524;SDS011;5819;49.648;8.330;2023-02-28T01:46:24;3.97;;;2.80;;
11524;SDS011;5819;49.648;8.330;2023-02-28T01:48:53;3.87;;;2.83;;
11524;SDS011;5819;49.648;8.330;2023-02-28T01:51:25;5.73;;;2.63;;
11524;SDS011;5819;49.648;8.330;2023-02-28T01:53:58;2.67;;;2.37;;
11524;SDS011;5819;49.648;8.330;2023-02-28T01:56:31;4.17;;;2.73;;
11524;SDS011;5819;49.648;8.330;2023-02-28T01:59:04;5.40;;;2.90;;
11524;SDS011;5819;49.648;8.330;2023-02-28T02:01:32;4.60;;;2.77;;
11524;SDS011;5819;49.648;8.330;2023-02-28T02:04:01;4.53;;;2.97;;
11524;SDS011;5819;49.648;8.330;2023-02-28T02:06:34;5.77;;;3.03;;
11524;SDS011;5819;49.648;8.330;2023-02-28T02:09:09;3.77;;;2.70;;
11524;SDS011;5819;49.648;8.330;2023-02-28T02:11:38;3.53;;;2.50;;
11524;SDS011;5819;49.648;8.330;2023-02-28T02:14:11;3.00;;;2.67;;
11524;SDS011;5819;49.648;8.330;2023-02-28T02:17:04;4.70;;;2.60;;
11524;SDS011;5819;49.648;8.330;2023-02-28T02:20:03;4.97;;;2.63;;
11524;SDS011;5819;49.648;8.330;2023-02-28T02:23:21;3.37;;;2.60;;
11524;SDS011;5819;49.648;8.330;2023-02-28T02:26:06;2.77;;;2.40;;
11524;SDS011;5819;49.648;8.330;2023-02-28T02:29:09;4.10;;;2.97;;
11524;SDS011;5819;49.648;8.330;2023-02-28T02:32:09;5.40;;;2.30;;
11524;SDS011;5819;49.648;8.330;2023-02-28T02:34:57;5.23;;;2.50;;
11524;SDS011;5819;49.648;8.330;2023-02-28T02:37:36;4.03;;;2.70;;
11524;SDS011;5819;49.648;8.330;2023-02-28T02:40:10;6.07;;;2.87;;
11524;SDS011;5819;49.648;8.330;2023-02-28T02:42:44;4.03;;;2.97;;
11524;SDS011;5819;49.648;8.330;2023-02-28T02:45:19;3.50;;;2.63;;
11524;SDS011;5819;49.648;8.330;2023-02-28T02:47:52;3.27;;;2.67;;
11524;SDS011;5819;49.648;8.330;2023-02-28T02:50:25;5.60;;;2.80;;
11524;SDS011;5819;49.648;8.330;2023-02-28T02:52:57;4.50;;;3.03;;
11524;SDS011;5819;49.648;8.330;2023-02-28T02:55:30;4.50;;;2.80;;
11524;SDS011;5819;49.648;8.330;2023-02-28T02:58:03;4.60;;;2.90;;
11524;SDS011;5819;49.648;8.330;2023-02-28T03:00:34;4.23;;;2.90;;
11524;SDS011;5819;49.648;8.330;2023-02-28T03:03:09;3.30;;;2.77;;
11524;SDS011;5819;49.648;8.330;2023-02-28T03:05:41;4.93;;;3.03;;
11524;SDS011;5819;49.648;8.330;2023-02-28T03:08:13;4.20;;;3.10;;
11524;SDS011;5819;49.648;8.330;2023-02-28T03:10:43;3.37;;;3.07;;
11524;SDS011;5819;49.648;8.330;2023-02-28T03:13:23;3.40;;;3.10;;
11524;SDS011;5819;49.648;8.330;2023-02-28T03:16:10;4.50;;;3.17;;
11524;SDS011;5819;49.648;8.330;2023-02-28T03:18:54;3.73;;;2.80;;
11524;SDS011;5819;49.648;8.330;2023-02-28T03:21:34;4.17;;;3.10;;
11524;SDS011;5819;49.648;8.330;2023-02-28T03:24:07;4.10;;;3.07;;
11524;SDS011;5819;49.648;8.330;2023-02-28T03:26:41;4.47;;;3.07;;
11524;SDS011;5819;49.648;8.330;2023-02-28T03:29:13;4.67;;;3.23;;
11524;SDS011;5819;49.648;8.330;2023-02-28T03:31:47;3.30;;;3.00;;
11524;SDS011;5819;49.648;8.330;2023-02-28T03:34:22;4.20;;;3.40;;
11524;SDS011;5819;49.648;8.330;2023-02-28T03:36:55;6.67;;;3.17;;
11524;SDS011;5819;49.648;8.330;2023-02-28T03:39:27;3.83;;;3.30;;
11524;SDS011;5819;49.648;8.330;2023-02-28T03:42:00;4.60;;;3.50;;
11524;SDS011;5819;49.648;8.330;2023-02-28T03:44:32;3.43;;;2.90;;
11524;SDS011;5819;49.648;8.330;2023-02-28T03:47:04;5.13;;;3.70;;
11524;SDS011;5819;49.648;8.330;2023-02-28T03:49:38;4.43;;;3.30;;
11524;SDS011;5819;49.648;8.330;2023-02-28T03:52:14;4.77;;;3.70;;
11524;SDS011;5819;49.648;8.330;2023-02-28T03:54:46;6.50;;;3.90;;
11524;SDS011;5819;49.648;8.330;2023-02-28T03:57:18;5.17;;;3.57;;
11524;SDS011;5819;49.648;8.330;2023-02-28T03:59:54;3.87;;;3.30;;
11524;SDS011;5819;49.648;8.330;2023-02-28T04:02:30;4.37;;;3.43;;
11524;SDS011;5819;49.648;8.330;2023-02-28T04:04:59;4.57;;;3.77;;
11524;SDS011;5819;49.648;8.330;2023-02-28T04:07:30;4.53;;;3.90;;
11524;SDS011;5819;49.648;8.330;2023-02-28T04:09:58;5.20;;;3.83;;
11524;SDS011;5819;49.648;8.330;2023-02-28T04:12:26;4.63;;;3.63;;
11524;SDS011;5819;49.648;8.330;2023-02-28T04:14:54;5.07;;;4.20;;
11524;SDS011;5819;49.648;8.330;2023-02-28T04:17:22;6.27;;;4.07;;
11524;SDS011;5819;49.648;8.330;2023-02-28T04:19:49;5.80;;;4.70;;
11524;SDS011;5819;49.648;8.330;2023-02-28T04:22:17;6.23;;;4.07;;
11524;SDS011;5819;49.648;8.330;2023-02-28T04:24:46;5.60;;;4.30;;
11524;SDS011;5819;49.648;8.330;2023-02-28T04:27:15;4.20;;;3.80;;
11524;SDS011;5819;49.648;8.330;2023-02-28T04:29:43;5.43;;;4.10;;
11524;SDS011;5819;49.648;8.330;2023-02-28T04:32:11;5.90;;;4.13;;
11524;SDS011;5819;49.648;8.330;2023-02-28T04:34:40;6.43;;;3.93;;
11524;SDS011;5819;49.648;8.330;2023-02-28T04:37:08;5.80;;;4.20;;
11524;SDS011;5819;49.648;8.330;2023-02-28T04:39:39;6.53;;;4.30;;
11524;SDS011;5819;49.648;8.330;2023-02-28T04:42:10;5.07;;;4.30;;
11524;SDS011;5819;49.648;8.330;2023-02-28T04:44:39;6.10;;;3.90;;
11524;SDS011;5819;49.648;8.330;2023-02-28T04:47:07;6.00;;;4.03;;
11524;SDS011;5819;49.648;8.330;2023-02-28T04:49:35;7.83;;;4.13;;
11524;SDS011;5819;49.648;8.330;2023-02-28T04:52:03;5.23;;;4.37;;
11524;SDS011;5819;49.648;8.330;2023-02-28T04:54:31;6.27;;;4.30;;
11524;SDS011;5819;49.648;8.330;2023-02-28T04:56:59;5.90;;;4.43;;
11524;SDS011;5819;49.648;8.330;2023-02-28T04:59:29;4.93;;;4.43;;
11524;SDS011;5819;49.648;8.330;2023-02-28T05:01:56;5.00;;;4.33;;
11524;SDS011;5819;49.648;8.330;2023-02-28T05:04:24;6.70;;;5.00;;
11524;SDS011;5819;49.648;8.330;2023-02-28T05:06:52;6.93;;;5.10;;
11524;SDS011;5819;49.648;8.330;2023-02-28T05:09:21;7.80;;;5.13;;
11524;SDS011;5819;49.648;8.330;2023-02-28T05:11:49;6.13;;;4.80;;
11524;SDS011;5819;49.648;8.330;2023-02-28T05:14:17;6.30;;;4.60;;
11524;SDS011;5819;49.648;8.330;2023-02-28T05:16:47;6.40;;;5.00;;
11524;SDS011;5819;49.648;8.330;2023-02-28T05:19:15;6.33;;;4.63;;
11524;SDS011;5819;49.648;8.330;2023-02-28T05:21:48;8.23;;;5.30;;
11524;SDS011;5819;49.648;8.330;2023-02-28T05:24:19;8.27;;;5.23;;
11524;SDS011;5819;49.648;8.330;2023-02-28T05:26:49;5.30;;;4.77;;
11524;SDS011;5819;49.648;8.330;2023-02-28T05:29:19;7.03;;;4.90;;
11524;SDS011;5819;49.648;8.330;2023-02-28T05:31:49;6.43;;;4.30;;
11524;SDS011;5819;49.648;8.330;2023-02-28T05:34:17;5.40;;;4.80;;
11524;SDS011;5819;49.648;8.330;2023-02-28T05:36:45;6.03;;;4.47;;
11524;SDS011;5819;49.648;8.330;2023-02-28T05:39:13;6.77;;;4.60;;
11524;SDS011;5819;49.648;8.330;2023-02-28T05:41:41;5.73;;;4.70;;
11524;SDS011;5819;49.648;8.330;2023-02-28T05:44:10;6.10;;;4.80;;
11524;SDS011;5819;49.648;8.330;2023-02-28T05:46:39;6.43;;;4.80;;
11524;SDS011;5819;49.648;8.330;2023-02-28T05:49:08;5.53;;;4.60;;
11524;SDS011;5819;49.648;8.330;2023-02-28T05:51:36;5.40;;;4.83;;
11524;SDS011;5819;49.648;8.330;2023-02-28T05:54:06;8.33;;;4.90;;
11524;SDS011;5819;49.648;8.330;2023-02-28T05:56:34;7.33;;;5.17;;
11524;SDS011;5819;49.648;8.330;2023-02-28T05:59:04;7.57;;;5.50;;
11524;SDS011;5819;49.648;8.330;2023-02-28T06:01:32;7.27;;;5.33;;
11524;SDS011;5819;49.648;8.330;2023-02-28T06:04:02;8.00;;;5.10;;
11524;SDS011;5819;49.648;8.330;2023-02-28T06:06:33;6.93;;;5.40;;
11524;SDS011;5819;49.648;8.330;2023-02-28T06:09:02;5.43;;;4.87;;
11524;SDS011;5819;49.648;8.330;2023-02-28T06:11:31;6.30;;;4.87;;
11524;SDS011;5819;49.648;8.330;2023-02-28T06:14:00;8.47;;;5.13;;
11524;SDS011;5819;49.648;8.330;2023-02-28T06:16:28;7.00;;;5.07;;
11524;SDS011;5819;49.648;8.330;2023-02-28T06:18:57;6.87;;;4.87;;
11524;SDS011;5819;49.648;8.330;2023-02-28T06:21:27;7.50;;;4.87;;
11524;SDS011;5819;49.648;8.330;2023-02-28T06:23:57;7.13;;;4.97;;
11524;SDS011;5819;49.648;8.330;2023-02-28T06:26:26;6.90;;;5.00;;
11524;SDS011;5819;49.648;8.330;2023-02-28T06:28:55;5.80;;;4.97;;
11524;SDS011;5819;49.648;8.330;2023-02-28T06:31:23;5.83;;;4.77;;
11524;SDS011;5819;49.648;8.330;2023-02-28T06:33:52;6.13;;;5.37;;
11524;SDS011;5819;49.648;8.330;2023-02-28T06:36:20;6.67;;;5.10;;
11524;SDS011;5819;49.648;8.330;2023-02-28T06:38:48;6.43;;;4.30;;
11524;SDS011;5819;49.648;8.330;2023-02-28T06:41:23;6.70;;;4.73;;
11524;SDS011;5819;49.648;8.330;2023-02-28T06:43:52;6.90;;;5.00;;
11524;SDS011;5819;49.648;8.330;2023-02-28T06:46:20;6.17;;;5.10;;
11524;SDS011;5819;49.648;8.330;2023-02-28T06:48:49;6.87;;;5.20;;
11524;SDS011;5819;49.648;8.330;2023-02-28T06:51:18;7.57;;;5.77;;
11524;SDS011;5819;49.648;8.330;2023-02-28T06:53:48;9.43;;;5.67;;
11524;SDS011;5819;49.648;8.330;2023-02-28T06:56:16;6.73;;;5.27;;
11524;SDS011;5819;49.648;8.330;2023-02-28T06:58:48;7.27;;;5.33;;
11524;SDS011;5819;49.648;8.330;2023-02-28T07:01:19;8.83;;;4.97;;
11524;SDS011;5819;49.648;8.330;2023-02-28T07:03:49;7.37;;;5.50;;
11524;SDS011;5819;49.648;8.330;2023-02-28T07:06:18;6.23;;;4.80;;
11524;SDS011;5819;49.648;8.330;2023-02-28T07:08:47;5.93;;;4.80;;
11524;SDS011;5819;49.648;8.330;2023-02-28T07:11:15;5.30;;;4.80;;
11524;SDS011;5819;49.648;8.330;2023-02-28T07:13:43;6.53;;;4.90;;
11524;SDS011;5819;49.648;8.330;2023-02-28T07:16:12;7.43;;;5.93;;
11524;SDS011;5819;49.648;8.330;2023-02-28T07:18:40;6.87;;;5.20;;
11524;SDS011;5819;49.648;8.330;2023-02-28T07:21:09;7.03;;;5.10;;
11524;SDS011;5819;49.648;8.330;2023-02-28T07:23:38;6.63;;;4.70;;
11524;SDS011;5819;49.648;8.330;2023-02-28T07:26:07;6.87;;;4.77;;
11524;SDS011;5819;49.648;8.330;2023-02-28T07:28:41;5.00;;;4.50;;
11524;SDS011;5819;49.648;8.330;2023-02-28T07:31:10;9.30;;;5.03;;
11524;SDS011;5819;49.648;8.330;2023-02-28T07:33:43;8.70;;;5.30;;
11524;SDS011;5819;49.648;8.330;2023-02-28T07:36:12;9.23;;;5.20;;
11524;SDS011;5819;49.648;8.330;2023-02-28T07:38:45;7.20;;;4.43;;
11524;SDS011;5819;49.648;8.330;2023-02-28T07:41:16;6.00;;;4.40;;
11524;SDS011;5819;49.648;8.330;2023-02-28T07:43:47;6.03;;;4.50;;
11524;SDS011;5819;49.648;8.330;2023-02-28T07:46:16;5.20;;;4.50;;
11524;SDS011;5819;49.648;8.330;2023-02-28T07:48:49;6.17;;;4.73;;
11524;SDS011;5819;49.648;8.330;2023-02-28T07:51:17;7.23;;;4.70;;
11524;SDS011;5819;49.648;8.330;2023-02-28T07:53:48;6.97;;;4.33;;
11524;SDS011;5819;49.648;8.330;2023-02-28T07:56:19;6.93;;;3.97;;
11524;SDS011;5819;49.648;8.330;2023-02-28T07:58:55;7.83;;;4.40;;
11524;SDS011;5819;49.648;8.330;2023-02-28T08:01:37;5.20;;;4.10;;
11524;SDS011;5819;49.648;8.330;2023-02-28T08:04:12;5.23;;;4.17;;
11524;SDS011;5819;49.648;8.330;2023-02-28T08:06:43;5.60;;;4.17;;
11524;SDS011;5819;49.648;8.330;2023-02-28T08:09:14;5.70;;;4.23;;
11524;SDS011;5819;49.648;8.330;2023-02-28T08:11:47;5.80;;;4.00;;
11524;SDS011;5819;49.648;8.330;2023-02-28T08:14:20;5.50;;;4.07;;
11524;SDS011;5819;49.648;8.330;2023-02-28T08:16:50;6.30;;;3.90;;
11524;SDS011;5819;49.648;8.330;2023-02-28T08:19:20;5.27;;;3.60;;
11524;SDS011;5819;49.648;8.330;2023-02-28T08:21:49;5.23;;;3.73;;
11524;SDS011;5819;49.648;8.330;2023-02-28T08:24:30;5.97;;;3.50;;
11524;SDS011;5819;49.648;8.330;2023-02-28T08:27:09;5.13;;;3.40;;
11524;SDS011;5819;49.648;8.330;2023-02-28T08:29:44;7.83;;;3.60;;
11524;SDS011;5819;49.648;8.330;2023-02-28T08:32:14;4.33;;;3.63;;
11524;SDS011;5819;49.648;8.330;2023-02-28T08:34:55;6.10;;;3.80;;
11524;SDS011;5819;49.648;8.330;2023-02-28T08:37:24;4.77;;;3.40;;
11524;SDS011;5819;49.648;8.330;2023-02-28T08:39:54;6.27;;;4.30;;
11524;SDS011;5819;49.648;8.330;2023-02-28T08:42:23;5.87;;;3.83;;
11524;SDS011;5819;49.648;8.330;2023-02-28T08:44:57;5.53;;;3.90;;
11524;SDS011;5819;49.648;8.330;2023-02-28T08:47:33;3.93;;;3.33;;
11524;SDS011;5819;49.648;8.330;2023-02-28T08:50:03;5.40;;;3.70;;
11524;SDS011;5819;49.648;8.330;2023-02-28T08:52:35;4.63;;;4.03;;
11524;SDS011;5819;49.648;8.330;2023-02-28T08:55:08;7.70;;;4.27;;
11524;SDS011;5819;49.648;8.330;2023-02-28T08:57:37;7.70;;;4.57;;
11524;SDS011;5819;49.648;8.330;2023-02-28T09:00:08;6.57;;;5.07;;
11524;SDS011;5819;49.648;8.330;2023-02-28T09:02:41;5.83;;;4.50;;
11524;SDS011;5819;49.648;8.330;2023-02-28T09:05:10;6.83;;;4.53;;
11524;SDS011;5819;49.648;8.330;2023-02-28T09:07:39;12.60;;;4.50;;
11524;SDS011;5819;49.648;8.330;2023-02-28T09:10:08;5.97;;;4.83;;
11524;SDS011;5819;49.648;8.330;2023-02-28T09:12:38;4.87;;;4.20;;
11524;SDS011;5819;49.648;8.330;2023-02-28T09:15:07;7.87;;;4.70;;
11524;SDS011;5819;49.648;8.330;2023-02-28T09:17:38;7.50;;;5.33;;
11524;SDS011;5819;49.648;8.330;2023-02-28T09:20:10;9.50;;;5.40;;
11524;SDS011;5819;49.648;8.330;2023-02-28T09:22:39;7.07;;;5.83;;
11524;SDS011;5819;49.648;8.330;2023-02-28T09:25:07;8.50;;;5.20;;
11524;SDS011;5819;49.648;8.330;2023-02-28T09:27:35;10.23;;;5.70;;
11524;SDS011;5819;49.648;8.330;2023-02-28T09:30:03;9.83;;;6.00;;
11524;SDS011;5819;49.648;8.330;2023-02-28T09:32:32;10.03;;;5.80;;
11524;SDS011;5819;49.648;8.330;2023-02-28T09:34:59;8.00;;;5.73;;
11524;SDS011;5819;49.648;8.330;2023-02-28T09:37:28;8.70;;;5.90;;
11524;SDS011;5819;49.648;8.330;2023-02-28T09:39:58;8.23;;;6.63;;
11524;SDS011;5819;49.648;8.330;2023-02-28T09:42:28;5.83;;;4.97;;
11524;SDS011;5819;49.648;8.330;2023-02-28T09:44:59;7.83;;;6.10;;
11524;SDS011;5819;49.648;8.330;2023-02-28T09:47:32;9.63;;;6.10;;
11524;SDS011;5819;49.648;8.330;2023-02-28T09:50:06;9.17;;;6.57;;
11524;SDS011;5819;49.648;8.330;2023-02-28T09:52:46;9.17;;;5.70;;
11524;SDS011;5819;49.648;8.330;2023-02-28T09:55:19;7.97;;;6.00;;
11524;SDS011;5819;49.648;8.330;2023-02-28T09:57:50;9.33;;;7.10;;
11524;SDS011;5819;49.648;8.330;2023-02-28T10:00:21;8.90;;;6.40;;
11524;SDS011;5819;49.648;8.330;2023-02-28T10:03:00;8.50;;;6.40;;
11524;SDS011;5819;49.648;8.330;2023-02-28T10:05:41;7.20;;;6.50;;
11524;SDS011;5819;49.648;8.330;2023-02-28T10:08:18;8.30;;;6.37;;
11524;SDS011;5819;49.648;8.330;2023-02-28T10:10:53;9.87;;;6.33;;
11524;SDS011;5819;49.648;8.330;2023-02-28T10:13:25;8.30;;;6.20;;
11524;SDS011;5819;49.648;8.330;2023-02-28T10:16:01;6.80;;;5.53;;
11524;SDS011;5819;49.648;8.330;2023-02-28T10:18:38;7.83;;;6.17;;
11524;SDS011;5819;49.648;8.330;2023-02-28T10:21:15;8.57;;;6.30;;
11524;SDS011;5819;49.648;8.330;2023-02-28T10:23:49;7.63;;;6.30;;
11524;SDS011;5819;49.648;8.330;2023-02-28T10:26:26;7.57;;;6.27;;
11524;SDS011;5819;49.648;8.330;2023-02-28T10:28:58;6.40;;;5.67;;
11524;SDS011;5819;49.648;8.330;2023-02-28T10:31:26;8.85;;;6.47;;
11524;SDS011;5819;49.648;8.330;2023-02-28T10:33:54;7.78;;;6.63;;
11524;SDS011;5819;49.648;8.330;2023-02-28T10:36:23;7.53;;;6.28;;
11524;SDS011;5819;49.648;8.330;2023-02-28T10:38:52;8.10;;;6.10;;
11524;SDS011;5819;49.648;8.330;2023-02-28T10:41:28;7.73;;;6.50;;
11524;SDS011;5819;49.648;8.330;2023-02-28T10:44:14;7.75;;;6.50;;
11524;SDS011;5819;49.648;8.330;2023-02-28T10:46:47;9.43;;;6.37;;
11524;SDS011;5819;49.648;8.330;2023-02-28T10:49:17;9.05;;;6.20;;
11524;SDS011;5819;49.648;8.330;2023-02-28T10:51:49;16.00;;;9.03;;
11524;SDS011;5819;49.648;8.330;2023-02-28T10:54:24;9.83;;;7.20;;
11524;SDS011;5819;49.648;8.330;2023-02-28T10:57:05;10.23;;;6.43;;
11524;SDS011;5819;49.648;8.330;2023-02-28T10:59:35;8.50;;;6.50;;
11524;SDS011;5819;49.648;8.330;2023-02-28T11:02:08;7.10;;;6.07;;
11524;SDS011;5819;49.648;8.330;2023-02-28T11:07:56;8.90;;;6.90;;
11524;SDS011;5819;49.648;8.330;2023-02-28T11:10:28;9.80;;;7.00;;
11524;SDS011;5819;49.648;8.330;2023-02-28T11:13:01;8.13;;;6.90;;
11524;SDS011;5819;49.648;8.330;2023-02-28T11:15:30;7.87;;;6.23;;
11524;SDS011;5819;49.648;8.330;2023-02-28T11:18:00;9.77;;;6.75;;
11524;SDS011;5819;49.648;8.330;2023-02-28T11:20:32;8.80;;;6.80;;
11524;SDS011;5819;49.648;8.330;2023-02-28T11:23:01;8.80;;;6.60;;
11524;SDS011;5819;49.648;8.330;2023-02-28T11:25:33;10.57;;;6.55;;
11524;SDS011;5819;49.648;8.330;2023-02-28T11:28:04;9.10;;;6.23;;
11524;SDS011;5819;49.648;8.330;2023-02-28T11:30:34;8.32;;;6.50;;
11524;SDS011;5819;49.648;8.330;2023-02-28T11:33:23;9.50;;;7.63;;
11524;SDS011;5819;49.648;8.330;2023-02-28T11:35:53;7.90;;;6.60;;
11524;SDS011;5819;49.648;8.330;2023-02-28T11:38:26;7.75;;;6.50;;
11524;SDS011;5819;49.648;8.330;2023-02-28T11:41:01;7.70;;;6.32;;
11524;SDS011;5819;49.648;8.330;2023-02-28T11:43:53;10.00;;;6.43;;
11524;SDS011;5819;49.648;8.330;2023-02-28T11:46:32;9.05;;;6.70;;
11524;SDS011;5819;49.648;8.330;2023-02-28T11:49:10;9.23;;;6.93;;
11524;SDS011;5819;49.648;8.330;2023-02-28T11:51:47;8.73;;;7.25;;
11524;SDS011;5819;49.648;8.330;2023-02-28T11:54:24;7.70;;;6.45;;
11524;SDS011;5819;49.648;8.330;2023-02-28T11:57:09;8.05;;;6.65;;
11524;SDS011;5819;49.648;8.330;2023-02-28T11:59:48;8.50;;;7.38;;
11524;SDS011;5819;49.648;8.330;2023-02-28T12:02:41;7.97;;;6.72;;
11524;SDS011;5819;49.648;8.330;2023-02-28T12:05:24;7.68;;;6.38;;
11524;SDS011;5819;49.648;8.330;2023-02-28T12:08:02;8.68;;;6.40;;
11524;SDS011;5819;49.648;8.330;2023-02-28T12:10:44;11.38;;;7.55;;
11524;SDS011;5819;49.648;8.330;2023-02-28T12:13:28;8.90;;;7.07;;
11524;SDS011;5819;49.648;8.330;2023-02-28T12:19:04;9.25;;;7.63;;
11524;SDS011;5819;49.648;8.330;2023-02-28T12:21:42;12.80;;;8.23;;
11524;SDS011;5819;49.648;8.330;2023-02-28T12:24:32;9.48;;;7.40;;
11524;SDS011;5819;49.648;8.330;2023-02-28T12:27:19;9.43;;;7.80;;
11524;SDS011;5819;49.648;8.330;2023-02-28T12:29:55;10.52;;;7.70;;
11524;SDS011;5819;49.648;8.330;2023-02-28T12:32:26;9.23;;;7.35;;
11524;SDS011;5819;49.648;8.330;2023-02-28T12:35:01;8.27;;;7.07;;
11524;SDS011;5819;49.648;8.330;2023-02-28T12:37:36;11.82;;;8.30;;
11524;SDS011;5819;49.648;8.330;2023-02-28T12:40:11;8.15;;;6.78;;
11524;SDS011;5819;49.648;8.330;2023-02-28T12:42:41;8.75;;;7.53;;
11524;SDS011;5819;49.648;8.330;2023-02-28T12:45:15;8.02;;;6.88;;
11524;SDS011;5819;49.648;8.330;2023-02-28T12:47:48;10.50;;;7.75;;
11524;SDS011;5819;49.648;8.330;2023-02-28T12:50:20;8.20;;;7.38;;
11524;SDS011;5819;49.648;8.330;2023-02-28T12:52:53;13.23;;;8.07;;
11524;SDS011;5819;49.648;8.330;2023-02-28T12:55:28;9.98;;;7.00;;
11524;SDS011;5819;49.648;8.330;2023-02-28T12:58:05;9.65;;;7.65;;
11524;SDS011;5819;49.648;8.330;2023-02-28T13:00:46;8.93;;;6.65;;
11524;SDS011;5819;49.648;8.330;2023-02-28T13:03:38;10.88;;;7.60;;
11524;SDS011;5819;49.648;8.330;2023-02-28T13:06:20;9.82;;;7.90;;
11524;SDS011;5819;49.648;8.330;2023-02-28T13:08:59;8.90;;;7.28;;
11524;SDS011;5819;49.648;8.330;2023-02-28T13:11:31;8.73;;;7.55;;
11524;SDS011;5819;49.648;8.330;2023-02-28T13:14:02;11.02;;;7.53;;
11524;SDS011;5819;49.648;8.330;2023-02-28T13:16:50;10.45;;;7.78;;
11524;SDS011;5819;49.648;8.330;2023-02-28T13:19:23;8.45;;;7.22;;
11524;SDS011;5819;49.648;8.330;2023-02-28T13:21:52;10.75;;;7.43;;
11524;SDS011;5819;49.648;8.330;2023-02-28T13:24:40;8.38;;;6.97;;
11524;SDS011;5819;49.648;8.330;2023-02-28T13:27:19;8.68;;;7.15;;
11524;SDS011;5819;49.648;8.330;2023-02-28T13:29:51;8.75;;;7.50;;
11524;SDS011;5819;49.648;8.330;2023-02-28T13:35:14;8.27;;;7.47;;
11524;SDS011;5819;49.648;8.330;2023-02-28T13:38:09;9.98;;;7.70;;
11524;SDS011;5819;49.648;8.330;2023-02-28T13:40:44;9.63;;;7.28;;
11524;SDS011;5819;49.648;8.330;2023-02-28T13:43:16;10.23;;;7.93;;
11524;SDS011;5819;49.648;8.330;2023-02-28T13:46:08;8.90;;;7.22;;
11524;SDS011;5819;49.648;8.330;2023-02-28T13:48:40;9.25;;;7.88;;
11524;SDS011;5819;49.648;8.330;2023-02-28T13:51:34;10.27;;;7.55;;
11524;SDS011;5819;49.648;8.330;2023-02-28T13:57:06;15.25;;;7.47;;
11524;SDS011;5819;49.648;8.330;2023-02-28T13:59:49;9.40;;;7.63;;
11524;SDS011;5819;49.648;8.330;2023-02-28T14:02:46;10.05;;;8.07;;
11524;SDS011;5819;49.648;8.330;2023-02-28T14:05:26;9.30;;;7.55;;
11524;SDS011;5819;49.648;8.330;2023-02-28T14:07:56;7.72;;;7.00;;
11524;SDS011;5819;49.648;8.330;2023-02-28T14:10:26;10.82;;;7.72;;
11524;SDS011;5819;49.648;8.330;2023-02-28T14:13:03;10.63;;;8.07;;
11524;SDS011;5819;49.648;8.330;2023-02-28T14:15:41;11.05;;;8.25;;
11524;SDS011;5819;49.648;8.330;2023-02-28T14:18:16;8.93;;;7.47;;
11524;SDS011;5819;49.648;8.330;2023-02-28T14:20:52;10.07;;;8.00;;
11524;SDS011;5819;49.648;8.330;2023-02-28T14:23:30;10.52;;;8.15;;
11524;SDS011;5819;49.648;8.330;2023-02-28T14:26:07;9.30;;;8.25;;
11524;SDS011;5819;49.648;8.330;2023-02-28T14:28:47;11.40;;;7.50;;
11524;SDS011;5819;49.648;8.330;2023-02-28T14:31:23;10.57;;;7.97;;
11524;SDS011;5819;49.648;8.330;2023-02-28T14:34:04;9.15;;;6.97;;
11524;SDS011;5819;49.648;8.330;2023-02-28T14:36:45;9.18;;;7.93;;
11524;SDS011;5819;49.648;8.330;2023-02-28T14:39:19;10.23;;;8.18;;
11524;SDS011;5819;49.648;8.330;2023-02-28T14:41:49;8.77;;;7.20;;
11524;SDS011;5819;49.648;8.330;2023-02-28T14:44:20;9.00;;;7.65;;
11524;SDS011;5819;49.648;8.330;2023-02-28T14:46:50;9.95;;;7.25;;
11524;SDS011;5819;49.648;8.330;2023-02-28T14:49:25;9.68;;;7.47;;
11524;SDS011;5819;49.648;8.330;2023-02-28T14:52:03;9.45;;;7.70;;
11524;SDS011;5819;49.648;8.330;2023-02-28T14:54:36;9.43;;;7.55;;
11524;SDS011;5819;49.648;8.330;2023-02-28T14:57:06;8.98;;;7.07;;
11524;SDS011;5819;49.648;8.330;2023-02-28T14:59:56;9.05;;;7.30;;
11524;SDS011;5819;49.648;8.330;2023-02-28T15:02:30;10.35;;;7.53;;
11524;SDS011;5819;49.648;8.330;2023-02-28T15:05:10;11.55;;;7.97;;
11524;SDS011;5819;49.648;8.330;2023-02-28T15:08:02;8.98;;;7.10;;
11524;SDS011;5819;49.648;8.330;2023-02-28T15:10:32;10.65;;;7.30;;
11524;SDS011;5819;49.648;8.330;2023-02-28T15:13:02;10.70;;;7.43;;
11524;SDS011;5819;49.648;8.330;2023-02-28T15:15:35;9.57;;;7.38;;
11524;SDS011;5819;49.648;8.330;2023-02-28T15:18:29;8.23;;;7.40;;
11524;SDS011;5819;49.648;8.330;2023-02-28T15:21:03;9.20;;;7.43;;
11524;SDS011;5819;49.648;8.330;2023-02-28T15:23:35;9.07;;;7.68;;
11524;SDS011;5819;49.648;8.330;2023-02-28T15:26:04;9.73;;;7.43;;
11524;SDS011;5819;49.648;8.330;2023-02-28T15:28:33;10.05;;;7.72;;
11524;SDS011;5819;49.648;8.330;2023-02-28T15:31:03;9.32;;;7.68;;
11524;SDS011;5819;49.648;8.330;2023-02-28T15:33:52;9.85;;;7.40;;
11524;SDS011;5819;49.648;8.330;2023-02-28T15:36:25;10.77;;;7.78;;
11524;SDS011;5819;49.648;8.330;2023-02-28T15:38:56;12.77;;;8.18;;
11524;SDS011;5819;49.648;8.330;2023-02-28T15:41:41;11.32;;;8.52;;
11524;SDS011;5819;49.648;8.330;2023-02-28T15:44:16;9.73;;;7.93;;
11524;SDS011;5819;49.648;8.330;2023-02-28T15:46:54;11.45;;;7.80;;
11524;SDS011;5819;49.648;8.330;2023-02-28T15:49:28;10.13;;;7.30;;
11524;SDS011;5819;49.648;8.330;2023-02-28T15:52:12;12.82;;;7.20;;
11524;SDS011;5819;49.648;8.330;2023-02-28T15:54:42;8.50;;;7.55;;
11524;SDS011;5819;49.648;8.330;2023-02-28T15:57:13;8.65;;;6.90;;
11524;SDS011;5819;49.648;8.330;2023-02-28T15:59:49;10.70;;;7.30;;
11524;SDS011;5819;49.648;8.330;2023-02-28T16:02:22;12.40;;;7.88;;
11524;SDS011;5819;49.648;8.330;2023-02-28T16:04:59;8.88;;;7.47;;
11524;SDS011;5819;49.648;8.330;2023-02-28T16:07:31;9.35;;;6.97;;
11524;SDS011;5819;49.648;8.330;2023-02-28T16:10:00;9.15;;;6.50;;
11524;SDS011;5819;49.648;8.330;2023-02-28T16:12:29;10.02;;;7.88;;
11524;SDS011;5819;49.648;8.330;2023-02-28T16:14:59;12.05;;;7.53;;
11524;SDS011;5819;49.648;8.330;2023-02-28T16:17:31;10.48;;;6.95;;
11524;SDS011;5819;49.648;8.330;2023-02-28T16:20:05;10.93;;;7.33;;
11524;SDS011;5819;49.648;8.330;2023-02-28T16:22:41;10.98;;;7.82;;
11524;SDS011;5819;49.648;8.330;2023-02-28T16:25:11;9.50;;;6.75;;
11524;SDS011;5819;49.648;8.330;2023-02-28T16:27:39;8.98;;;7.35;;
11524;SDS011;5819;49.648;8.330;2023-02-28T16:30:13;11.70;;;8.05;;
11524;SDS011;5819;49.648;8.330;2023-02-28T16:32:45;8.27;;;6.50;;
11524;SDS011;5819;49.648;8.330;2023-02-28T16:35:14;9.05;;;7.07;;
11524;SDS011;5819;49.648;8.330;2023-02-28T16:37:45;10.90;;;7.95;;
11524;SDS011;5819;49.648;8.330;2023-02-28T16:40:14;10.75;;;8.02;;
11524;SDS011;5819;49.648;8.330;2023-02-28T16:42:43;9.77;;;7.88;;
11524;SDS011;5819;49.648;8.330;2023-02-28T16:45:14;9.05;;;7.85;;
11524;SDS011;5819;49.648;8.330;2023-02-28T16:47:45;12.13;;;8.32;;
11524;SDS011;5819;49.648;8.330;2023-02-28T16:50:18;9.50;;;8.02;;
11524;SDS011;5819;49.648;8.330;2023-02-28T16:52:50;11.32;;;7.63;;
11524;SDS011;5819;49.648;8.330;2023-02-28T16:55:21;8.85;;;7.68;;
11524;SDS011;5819;49.648;8.330;2023-02-28T16:57:51;9.95;;;7.85;;
11524;SDS011;5819;49.648;8.330;2023-02-28T17:00:23;13.27;;;8.88;;
11524;SDS011;5819;49.648;8.330;2023-02-28T17:02:52;13.00;;;8.98;;
11524;SDS011;5819;49.648;8.330;2023-02-28T17:05:22;10.60;;;8.35;;
11524;SDS011;5819;49.648;8.330;2023-02-28T17:07:54;11.35;;;8.07;;
11524;SDS011;5819;49.648;8.330;2023-02-28T17:10:23;8.32;;;6.90;;
11524;SDS011;5819;49.648;8.330;2023-02-28T17:12:53;9.73;;;6.70;;